createdAt,value
2023-01-19T00:15:13.778Z,4.44
2023-01-19T00:23:36.168Z,4.35
2023-01-19T00:40:19.886Z,4.39
2023-01-19T01:05:07.666Z,4.37
2023-01-19T01:09:32.247Z,4.28
2023-01-19T01:13:53.607Z,4.39
2023-01-19T01:22:06.557Z,4.37
2023-01-19T01:26:18.175Z,4.21
2023-01-19T01:53:10.091Z,4.17
2023-01-19T02:18:24.016Z,3.96
2023-01-19T02:48:21.441Z,3.87
2023-01-19T02:57:10.666Z,3.86
2023-01-19T03:06:21.004Z,3.81
2023-01-19T03:11:18.207Z,3.89
2023-01-19T03:20:07.627Z,3.82
2023-01-19T03:24:11.758Z,3.70
2023-01-19T03:33:11.751Z,3.54
2023-01-19T03:51:00.954Z,3.52
2023-01-19T03:55:19.319Z,3.49
2023-01-19T04:21:11.232Z,3.29
2023-01-19T04:25:17.770Z,3.24
2023-01-19T04:50:11.415Z,3.09
2023-01-19T04:58:22.718Z,3.10
2023-01-19T05:06:09.899Z,2.75
2023-01-19T05:10:07.683Z,2.57
2023-01-19T05:14:45.631Z,2.60
2023-01-19T05:23:25.387Z,2.58
2023-01-19T05:35:12.918Z,2.61
2023-01-19T05:38:34.657Z,2.59
2023-01-19T05:41:53.544Z,2.46
2023-01-19T05:45:03.545Z,2.57
2023-01-19T05:48:12.254Z,2.58
2023-01-19T05:51:26.255Z,2.40
2023-01-19T05:54:33.813Z,2.26
2023-01-19T05:57:46.455Z,2.48
2023-01-19T06:01:06.707Z,2.45
2023-01-19T06:04:15.295Z,2.41
2023-01-19T06:07:20.502Z,2.30
2023-01-19T06:10:24.909Z,2.33
2023-01-19T06:13:30.555Z,2.11
2023-01-19T06:16:36.092Z,2.23
2023-01-19T06:19:43.440Z,2.13
2023-01-19T06:22:49.936Z,2.17
2023-01-19T06:25:54.428Z,2.14
2023-01-19T06:29:00.170Z,2.13
2023-01-19T06:32:04.568Z,2.08
2023-01-19T06:35:08.324Z,2.02
2023-01-19T06:38:14.299Z,2.11
2023-01-19T06:41:19.092Z,2.06
2023-01-19T06:44:23.500Z,2.05
2023-01-19T06:47:28.538Z,2.07
2023-01-19T06:50:36.884Z,2.11
2023-01-19T06:53:42.667Z,2.11
2023-01-19T06:56:47.096Z,2.07
2023-01-19T06:59:51.409Z,2.09
2023-01-19T07:02:59.993Z,2.09
2023-01-19T07:06:11.065Z,2.00
2023-01-19T07:09:21.595Z,2.07
2023-01-19T07:12:31.045Z,2.05
2023-01-19T07:15:38.025Z,2.06
2023-01-19T07:18:44.404Z,1.97
2023-01-19T07:21:52.178Z,2.04
2023-01-19T07:25:01.122Z,2.10
2023-01-19T07:28:06.026Z,2.12
2023-01-19T07:31:09.855Z,2.09
2023-01-19T07:34:13.824Z,2.19
2023-01-19T07:37:22.917Z,2.19
2023-01-19T07:40:33.217Z,2.27
2023-01-19T07:43:37.758Z,2.04
2023-01-19T07:46:44.208Z,2.33
2023-01-19T07:49:48.550Z,2.28
2023-01-19T07:52:54.093Z,2.31
2023-01-19T07:56:00.650Z,2.37
2023-01-19T07:59:04.793Z,2.29
2023-01-19T08:02:10.977Z,2.35
2023-01-19T08:05:16.388Z,2.34
2023-01-19T08:08:21.492Z,2.33
2023-01-19T08:11:30.114Z,2.37
2023-01-19T08:14:38.544Z,2.34
2023-01-19T08:17:46.250Z,2.12
2023-01-19T08:20:51.074Z,2.32
2023-01-19T08:24:03.565Z,2.27
2023-01-19T08:27:13.860Z,2.27
2023-01-19T08:30:25.788Z,2.32
2023-01-19T08:33:35.448Z,2.30
2023-01-19T08:36:47.320Z,2.38
2023-01-19T08:39:56.788Z,2.41
2023-01-19T08:43:05.682Z,2.39
2023-01-19T08:46:10.852Z,2.49
2023-01-19T08:49:20.505Z,2.52
2023-01-19T08:52:27.143Z,2.57
2023-01-19T08:55:31.741Z,2.61
2023-01-19T08:58:35.811Z,2.49
2023-01-19T09:01:41.920Z,2.66
2023-01-19T09:04:48.601Z,2.67
2023-01-19T09:07:55.873Z,2.63
2023-01-19T09:11:12.889Z,2.57
2023-01-19T09:14:23.185Z,2.27
2023-01-19T09:17:41.551Z,2.48
2023-01-19T09:20:51.041Z,2.21
2023-01-19T09:23:59.979Z,2.04
2023-01-19T09:27:11.844Z,2.38
2023-01-19T09:30:30.245Z,1.83
2023-01-19T09:33:41.539Z,2.28
2023-01-19T09:36:48.127Z,1.95
2023-01-19T09:39:54.167Z,2.02
2023-01-19T09:43:21.517Z,1.95
2023-01-19T09:46:31.792Z,2.27
2023-01-19T09:49:39.629Z,1.87
2023-01-19T09:52:49.110Z,2.14
2023-01-19T09:55:54.128Z,2.20
2023-01-19T09:58:59.014Z,1.56
2023-01-19T10:03:02.289Z,1.83
2023-01-19T10:06:10.365Z,1.64
2023-01-19T10:09:32.277Z,2.02
2023-01-19T10:12:38.968Z,2.15
2023-01-19T10:16:12.562Z,2.15
2023-01-19T10:19:30.770Z,1.99
2023-01-19T10:22:35.016Z,2.13
2023-01-19T10:25:40.018Z,2.09
2023-01-19T10:28:44.341Z,2.03
2023-01-19T10:31:49.250Z,2.04
2023-01-19T10:34:55.673Z,1.97
2023-01-19T10:38:03.077Z,1.67
2023-01-19T10:41:12.739Z,1.91
2023-01-19T10:44:35.305Z,1.66
2023-01-19T10:47:40.446Z,1.99
2023-01-19T10:50:44.114Z,1.95
2023-01-19T10:54:05.218Z,1.58
2023-01-19T10:57:10.701Z,1.85
2023-01-19T11:00:44.676Z,1.92
2023-01-19T11:03:51.320Z,1.51
2023-01-19T11:07:13.946Z,1.92
2023-01-19T11:10:19.367Z,1.82
2023-01-19T11:13:26.247Z,1.64
2023-01-19T11:16:34.052Z,1.14
2023-01-19T11:19:41.695Z,1.39
2023-01-19T11:22:46.313Z,1.76
2023-01-19T11:25:54.020Z,1.66
2023-01-19T11:29:00.451Z,1.58
2023-01-19T11:32:13.265Z,1.67
2023-01-19T11:35:36.380Z,1.72
2023-01-19T11:38:47.515Z,1.76
2023-01-19T11:41:57.070Z,1.70
2023-01-19T11:45:16.187Z,1.70
2023-01-19T11:48:40.547Z,1.68
2023-01-19T11:52:16.406Z,1.76
2023-01-19T11:55:57.118Z,1.55
2023-01-19T11:59:03.338Z,1.69
2023-01-19T12:02:24.420Z,1.40
2023-01-19T12:05:35.345Z,1.45
2023-01-19T12:09:10.806Z,1.48
2023-01-19T12:12:40.413Z,1.48
2023-01-19T12:15:45.038Z,1.52
2023-01-19T12:19:14.459Z,1.51
2023-01-19T12:22:18.666Z,1.32
2023-01-19T12:25:31.815Z,1.66
2023-01-19T12:28:40.041Z,1.79
2023-01-19T12:31:49.915Z,1.62
2023-01-19T12:35:00.059Z,1.72
2023-01-19T12:38:39.690Z,1.45
2023-01-19T12:41:49.939Z,1.41
2023-01-19T12:45:16.501Z,1.36
2023-01-19T12:48:32.226Z,1.41
2023-01-19T12:51:37.052Z,1.53
2023-01-19T12:54:53.367Z,1.41
2023-01-19T12:58:04.459Z,1.45
2023-01-19T13:01:20.957Z,1.36
2023-01-19T13:04:38.123Z,1.24
2023-01-19T13:08:09.136Z,1.41
2023-01-19T13:11:20.775Z,1.42
2023-01-19T13:14:38.896Z,1.53
2023-01-19T13:17:53.956Z,1.43
2023-01-19T13:21:10.560Z,1.43
2023-01-19T13:24:26.411Z,1.63
2023-01-19T13:27:31.815Z,1.69
2023-01-19T13:30:38.698Z,1.80
2023-01-19T13:34:00.569Z,1.87
2023-01-19T13:37:08.667Z,2.06
2023-01-19T13:40:20.944Z,2.21
2023-01-19T13:43:40.276Z,2.19
2023-01-19T13:46:48.134Z,2.29
2023-01-19T13:49:59.241Z,2.26
2023-01-19T13:53:05.449Z,2.29
2023-01-19T13:56:24.856Z,2.24
2023-01-19T13:59:30.001Z,2.09
2023-01-19T14:02:35.876Z,2.01
2023-01-19T14:05:44.102Z,1.87
2023-01-19T14:09:06.561Z,1.90
2023-01-19T14:12:14.928Z,1.95
2023-01-19T14:15:18.973Z,1.81
2023-01-19T14:18:26.076Z,1.96
2023-01-19T14:22:01.919Z,1.19
2023-01-19T14:25:35.061Z,1.90
2023-01-19T14:28:50.943Z,1.93
2023-01-19T14:32:18.793Z,1.89
2023-01-19T14:35:26.469Z,1.88
2023-01-19T14:38:30.998Z,1.87
2023-01-19T14:41:50.130Z,1.88
2023-01-19T14:44:56.272Z,1.79
2023-01-19T14:48:02.076Z,1.75
2023-01-19T14:51:07.221Z,1.68
2023-01-19T14:54:22.416Z,1.64
2023-01-19T14:57:31.043Z,1.67
2023-01-19T15:00:47.288Z,1.66
2023-01-19T15:04:11.633Z,1.55
2023-01-19T15:07:39.648Z,1.51
2023-01-19T15:10:56.590Z,1.49
2023-01-19T15:14:11.340Z,1.44
2023-01-19T15:17:31.654Z,1.51
2023-01-19T15:21:04.577Z,1.53
2023-01-19T15:24:31.219Z,1.48
2023-01-19T15:27:56.655Z,1.56
2023-01-19T15:31:15.450Z,1.41
2023-01-19T15:34:51.058Z,1.32
2023-01-19T15:38:16.438Z,1.36
2023-01-19T15:41:46.266Z,1.44
2023-01-19T15:45:50.357Z,1.40
2023-01-19T15:49:09.609Z,1.41
2023-01-19T15:52:50.462Z,1.32
2023-01-19T15:56:15.745Z,1.44
2023-01-19T16:00:03.625Z,1.39
2023-01-19T16:03:30.279Z,1.37
2023-01-19T16:07:27.747Z,1.39
2023-01-19T16:11:31.178Z,1.22
2023-01-19T16:15:07.841Z,1.33
2023-01-19T16:18:46.903Z,1.33
2023-01-19T16:22:07.095Z,1.39
2023-01-19T16:25:19.349Z,1.35
2023-01-19T16:28:42.347Z,1.31
2023-01-19T16:31:52.221Z,1.27
2023-01-19T16:35:17.742Z,1.25
2023-01-19T16:38:30.092Z,1.04
2023-01-19T16:42:06.160Z,1.04
2023-01-19T16:45:26.120Z,0.96
2023-01-19T16:48:55.720Z,0.81
2023-01-19T16:52:17.590Z,0.65
2023-01-19T16:55:43.200Z,0.50
2023-01-19T16:59:13.437Z,0.54
2023-01-19T17:03:04.199Z,0.37
2023-01-19T17:06:28.383Z,0.49
2023-01-19T17:10:07.911Z,0.61
2023-01-19T17:13:35.141Z,0.53
2023-01-19T17:17:05.749Z,0.49
2023-01-19T17:20:34.470Z,0.64
2023-01-19T17:24:07.347Z,0.55
2023-01-19T17:27:43.647Z,0.48
2023-01-19T17:30:54.956Z,0.45
2023-01-19T17:34:31.732Z,0.45
2023-01-19T17:38:19.046Z,0.41
2023-01-19T17:42:13.614Z,0.31
2023-01-19T17:46:05.282Z,0.29
2023-01-19T17:49:54.045Z,-0.01
2023-01-19T17:53:25.308Z,-0.25
2023-01-19T17:57:11.500Z,-0.26
2023-01-19T18:01:23.484Z,-0.24
2023-01-19T18:10:04.945Z,-0.30
2023-01-19T18:17:39.679Z,-0.16
2023-01-19T18:21:44.675Z,-0.37
2023-01-19T18:25:36.541Z,-0.42
2023-01-19T18:58:07.374Z,0.10
2023-01-19T19:02:21.839Z,0.16
2023-01-19T19:06:27.825Z,0.06
2023-01-19T19:15:18.900Z,-0.31
2023-01-19T19:37:11.054Z,-0.56
2023-01-19T19:41:51.826Z,-0.71
2023-01-19T19:50:10.496Z,-1.05
2023-01-19T20:02:41.230Z,-1.13
2023-01-19T20:10:48.429Z,-1.56
2023-01-19T20:19:05.297Z,-2.33
2023-01-19T20:23:05.569Z,-1.98
2023-01-19T20:36:22.245Z,-1.84
2023-01-19T20:40:24.965Z,-1.82
2023-01-19T20:49:07.586Z,-2.09
2023-01-19T20:57:54.639Z,-2.21
2023-01-19T21:06:27.798Z,-1.37
2023-01-19T21:10:38.091Z,-1.26
2023-01-19T21:19:07.434Z,-1.39
2023-01-19T21:23:25.758Z,-1.50
2023-01-19T21:27:27.466Z,-1.62
2023-01-19T21:47:27.257Z,-2.35
2023-01-19T21:56:23.479Z,-2.48
2023-01-19T22:04:25.507Z,-2.47
2023-01-19T22:08:17.670Z,-2.39
2023-01-19T22:42:08.424Z,-2.43
2023-01-19T22:46:08.591Z,-2.58
2023-01-19T22:50:31.335Z,-2.72
2023-01-19T22:55:00.068Z,-2.48
2023-01-19T23:07:10.244Z,-2.20
2023-01-19T23:23:25.736Z,-2.72
2023-01-19T23:40:07.714Z,-2.79
2023-01-19T23:44:17.796Z,-2.65
2023-01-19T23:48:22.700Z,-2.77
2023-01-19T23:57:08.249Z,-3.05
